Impacts TAF Board
For situational awareness. Not to be used for flight planning purposes.
IDs:

KPIT - Pittsburgh Intl, PA, US

Issued at 1049 UTC 15 Dec 2018
Updated at 1104 UTC 15 Dec 2018
Potential Impact None Slight Moderate High
Time<<16/12Z 16/13Z 16/14Z 16/15Z 16/16Z 16/17Z 16/18Z 16/19Z 16/20Z 16/21Z 16/22Z 16/23Z 17/00Z
Type
VIS
CIG
Cover
FltCat
WX
WDir
WSpd
WGst
Raw TAF
KPIT 151049Z 1511/1612 06005KT 3SM -RA BR SCT002 OVC020
  TEMPO 1511/1513 1 1/2SM -RA BR BKN002
  FM151400 06010KT P6SM -RA OVC025
  FM152000 05012KT 5SM -RA OVC015


METAR Board
Radar Display
Forecast Discussion
For situational awareness. Not to be used for flight planning purposes.